Time;durP1;ratioP1;P1;durP2;ratioP2;P2;SDS_P1;SDS_P2;PMS_P1;PMS_P2;Temp;Humidity;BMP_temperature;BMP_pressure;BME280_temperature;BME280_humidity;BME280_pressure;Samples;Min_cycle;Max_cycle;Signal;HPM_P1;HPM_P2
2021/01/05 00:00:40;;;;;;;7.70;6.55;;;3.20;91.10;;;;;;5069627;28;20020;-86
2021/01/05 00:03:31;;;;;;;8.40;6.78;;;3.20;91.10;;;;;;5073254;28;20032;-86
2021/01/05 00:06:00;;;;;;;8.00;6.77;;;3.20;91.10;;;;;;5055856;28;20049;-86
2021/01/05 00:08:35;;;;;;;8.23;6.75;;;3.20;91.10;;;;;;5074261;28;20024;-86
2021/01/05 00:11:10;;;;;;;;;;;;;;;;;;;;;
2021/01/05 00:13:49;;;;;;;6.65;5.93;;;3.20;91.10;;;;;;5074217;28;20036;-87
2021/01/05 00:16:23;;;;;;;10.30;7.00;;;3.20;91.10;;;;;;5057179;28;20037;-85
2021/01/05 00:18:58;;;;;;;8.73;7.18;;;3.20;91.10;;;;;;5071779;28;20078;-86
2021/01/05 00:21:35;;;;;;;;;;;;;;;;;;;;;
2021/01/05 00:24:14;;;;;;;7.53;6.53;;;3.10;91.00;;;;;;5073756;28;20039;-86
2021/01/05 00:26:48;;;;;;;8.65;7.15;;;3.10;91.00;;;;;;5055574;28;20116;-85
2021/01/05 00:29:14;;;;;;;7.65;6.50;;;3.10;91.00;;;;;;5073650;28;20058;-86
2021/01/05 00:31:49;;;;;;;9.25;7.20;;;3.10;91.10;;;;;;5071919;28;20119;-87
2021/01/05 00:34:20;;;;;;;7.80;6.55;;;3.10;91.10;;;;;;5072945;28;20025;-85
2021/01/05 00:36:58;;;;;;;9.38;7.63;;;3.10;91.10;;;;;;5072010;28;20082;-86
2021/01/05 00:39:24;;;;;;;9.23;7.13;;;3.10;91.10;;;;;;5072315;28;20579;-85
2021/01/05 00:41:55;;;;;;;9.10;7.38;;;3.10;91.20;;;;;;5072416;28;20123;-85
2021/01/05 00:44:28;;;;;;;10.93;7.85;;;3.10;91.10;;;;;;5072560;28;20045;-85
2021/01/05 00:47:01;;;;;;;12.10;8.65;;;3.10;91.10;;;;;;5058771;28;20425;-85
2021/01/05 00:49:35;;;;;;;9.30;7.57;;;3.10;91.10;;;;;;5057103;28;20036;-86
2021/01/05 00:52:08;;;;;;;10.52;8.23;;;3.10;91.10;;;;;;5054522;28;20048;-85
2021/01/05 00:54:47;;;;;;;12.02;9.20;;;3.10;91.20;;;;;;5056088;28;20061;-85
2021/01/05 00:57:18;;;;;;;9.65;7.65;;;3.10;91.40;;;;;;5072700;28;20553;-85
2021/01/05 00:59:44;;;;;;;10.30;7.40;;;3.00;91.10;;;;;;5056047;28;20033;-85
2021/01/05 01:02:15;;;;;;;8.60;7.38;;;3.10;91.20;;;;;;5072164;28;20475;-85
2021/01/05 01:04:57;;;;;;;9.40;7.45;;;3.10;91.20;;;;;;5071258;28;20711;-85
2021/01/05 01:07:23;;;;;;;10.80;8.23;;;3.10;91.20;;;;;;5040047;28;20037;-85
2021/01/05 01:09:57;;;;;;;9.95;7.93;;;3.10;91.10;;;;;;5055083;28;20039;-85
2021/01/05 01:12:24;;;;;;;10.00;8.00;;;3.10;91.20;;;;;;5056628;28;20376;-85
2021/01/05 01:14:53;;;;;;;11.32;8.73;;;3.20;91.20;;;;;;5071515;28;20472;-84
2021/01/05 01:17:23;;;;;;;12.93;9.00;;;3.10;91.10;;;;;;5071710;28;20017;-86
2021/01/05 01:19:59;;;;;;;10.95;8.15;;;3.10;91.10;;;;;;5087771;28;20036;-85
2021/01/05 01:22:30;;;;;;;10.73;8.25;;;3.10;91.20;;;;;;5071818;28;20025;-85
2021/01/05 01:25:14;;;;;;;9.77;7.63;;;3.10;91.20;;;;;;5071561;28;20035;-86
2021/01/05 01:27:42;;;;;;;12.70;9.10;;;3.10;91.20;;;;;;5065605;28;20024;-85
2021/01/05 01:30:25;;;;;;;9.45;7.88;;;3.10;91.10;;;;;;5071138;28;20534;-85
2021/01/05 01:32:58;;;;;;;10.45;7.60;;;3.10;91.20;;;;;;5072160;28;20103;-85
2021/01/05 01:35:27;;;;;;;12.77;9.32;;;3.10;91.20;;;;;;5088785;28;20464;-85
2021/01/05 01:37:55;;;;;;;13.73;10.10;;;3.10;91.20;;;;;;5055386;28;20361;-85
2021/01/05 01:40:57;;;;;;;;;;;;;;;;;;;;;
2021/01/05 01:43:24;;;;;;;11.38;8.82;;;3.10;91.20;;;;;;5052897;28;20477;-84
2021/01/05 01:45:56;;;;;;;11.77;8.88;;;3.10;91.20;;;;;;5077979;28;20111;-86
2021/01/05 01:48:24;;;;;;;10.50;8.45;;;3.10;91.20;;;;;;5070331;28;20090;-86
2021/01/05 01:50:55;;;;;;;11.25;8.65;;;3.10;91.10;;;;;;5069327;28;20100;-87
2021/01/05 01:53:54;;;;;;;;;;;;;;;;;;;;;
2021/01/05 01:56:29;;;;;;;10.85;8.55;;;3.10;91.10;;;;;;5072091;28;20017;-85
2021/01/05 01:59:26;;;;;;;10.35;8.00;;;3.10;91.20;;;;;;5071455;28;20506;-85
2021/01/05 02:02:28;;;;;;;10.18;7.97;;;3.10;91.20;;;;;;5071417;28;20484;-85
2021/01/05 02:05:12;;;;;;;;;;;3.10;91.10;;;;;;5070469;28;20039;-85
2021/01/05 02:08:22;;;;;;;;;;;;;;;;;;;;;
2021/01/05 02:11:17;;;;;;;9.38;7.40;;;3.10;91.20;;;;;;5068952;28;20361;-85
2021/01/05 02:14:13;;;;;;;9.98;7.85;;;3.10;91.10;;;;;;5050606;28;20041;-85
2021/01/05 02:17:10;;;;;;;9.38;7.32;;;3.10;91.10;;;;;;5070338;28;20115;-86
2021/01/05 02:19:39;;;;;;;10.75;8.38;;;3.10;91.10;;;;;;5069912;28;20487;-85
2021/01/05 02:22:24;;;;;;;9.88;7.32;;;3.10;91.10;;;;;;5071041;28;20050;-85
2021/01/05 02:25:14;;;;;;;11.85;8.52;;;3.10;91.10;;;;;;5072402;28;20032;-85
2021/01/05 02:27:53;;;;;;;9.88;7.82;;;3.20;91.10;;;;;;5066470;28;20089;-85
2021/01/05 02:30:26;;;;;;;11.18;8.70;;;3.20;91.10;;;;;;5071093;28;20025;-85
2021/01/05 02:33:18;;;;;;;10.23;8.15;;;3.20;91.10;;;;;;5069340;28;20464;-85
2021/01/05 02:36:11;;;;;;;9.75;7.78;;;3.10;91.10;;;;;;5070384;28;20029;-86
2021/01/05 02:39:08;;;;;;;10.85;8.50;;;3.10;91.10;;;;;;5069114;28;20025;-85
2021/01/05 02:41:43;;;;;;;10.88;7.85;;;3.20;91.10;;;;;;5087000;28;20120;-85
2021/01/05 02:44:44;;;;;;;11.35;8.25;;;3.20;91.10;;;;;;5086582;28;20391;-85
2021/01/05 02:47:35;;;;;;;12.30;9.23;;;3.20;91.10;;;;;;5087501;28;20170;-86
2021/01/05 02:50:39;;;;;;;9.80;7.57;;;3.20;91.10;;;;;;5070374;28;20051;-85
2021/01/05 02:53:15;;;;;;;11.85;8.60;;;3.20;91.20;;;;;;5068732;28;20039;-85
2021/01/05 02:55:56;;;;;;;11.18;8.68;;;3.20;91.10;;;;;;5070674;28;20119;-85
2021/01/05 02:58:59;;;;;;;11.80;8.88;;;3.20;91.10;;;;;;5070840;28;20074;-85
2021/01/05 03:02:18;;;;;;;11.55;9.10;;;3.20;91.10;;;;;;5072255;28;20024;-85
2021/01/05 03:04:43;;;;;;;11.50;8.85;;;3.20;91.10;;;;;;5061304;28;20460;-86
2021/01/05 03:07:15;;;;;;;10.85;8.40;;;3.20;91.00;;;;;;5053742;28;20142;-86
2021/01/05 03:09:56;;;;;;;11.88;8.35;;;3.20;91.00;;;;;;5070899;28;20020;-86
2021/01/05 03:12:43;;;;;;;12.00;9.17;;;3.20;91.00;;;;;;5071018;28;20029;-85
2021/01/05 03:15:25;;;;;;;12.10;9.32;;;3.20;91.00;;;;;;5070090;28;20476;-86
2021/01/05 03:18:06;;;;;;;;;;;;;;;;;;;;;
2021/01/05 03:20:44;;;;;;;12.80;9.33;;;3.20;91.00;;;;;;5071989;28;20271;-86
2021/01/05 03:23:14;;;;;;;13.48;10.02;;;3.20;91.00;;;;;;5070482;28;20480;-87
2021/01/05 03:25:47;;;;;;;13.73;9.93;;;3.10;90.90;;;;;;5068583;28;20035;-86
2021/01/05 03:28:25;;;;;;;12.45;9.45;;;3.10;91.00;;;;;;5073978;28;20044;-86
2021/01/05 03:31:00;;;;;;;12.45;9.00;;;3.10;91.00;;;;;;5073750;28;20017;-86
2021/01/05 03:33:31;;;;;;;12.10;10.00;;;3.10;91.00;;;;;;5074212;28;20017;-86
2021/01/05 03:36:02;;;;;;;14.45;10.20;;;3.10;91.00;;;;;;5057848;28;20035;-86
2021/01/05 03:38:32;;;;;;;15.88;11.45;;;3.20;91.00;;;;;;5057527;28;20078;-86
2021/01/05 03:41:00;;;;;;;12.93;10.10;;;3.20;91.00;;;;;;5072815;28;20035;-87
2021/01/05 03:43:26;;;;;;;13.20;8.82;;;3.20;90.90;;;;;;5073660;28;20028;-86
2021/01/05 03:45:54;;;;;;;13.48;10.38;;;3.20;91.20;;;;;;5073944;28;20116;-85
2021/01/05 03:48:33;;;;;;;;;;;;;;;;;;;;;
2021/01/05 03:50:59;;;;;;;13.82;9.65;;;3.20;90.90;;;;;;5074456;28;20025;-86
2021/01/05 03:53:40;;;;;;;15.18;10.63;;;3.20;91.00;;;;;;5073172;28;20119;-86
2021/01/05 03:56:07;;;;;;;15.23;10.52;;;3.10;91.00;;;;;;5073367;28;20048;-86
2021/01/05 03:58:35;;;;;;;17.23;11.27;;;3.20;91.00;;;;;;5074024;28;20070;-86
2021/01/05 04:01:04;;;;;;;16.45;11.32;;;3.20;91.00;;;;;;5072833;28;20020;-86
2021/01/05 04:03:37;;;;;;;15.30;11.02;;;3.20;91.10;;;;;;5073409;28;20032;-86
2021/01/05 04:06:05;;;;;;;15.20;11.13;;;3.20;91.10;;;;;;5073630;28;20434;-86
2021/01/05 04:08:31;;;;;;;15.82;11.57;;;3.20;91.10;;;;;;5073723;28;20128;-87
2021/01/05 04:10:59;;;;;;;16.42;11.43;;;3.10;91.10;;;;;;5074764;28;20107;-86
2021/01/05 04:13:32;;;;;;;14.43;10.82;;;3.10;91.10;;;;;;5073550;28;20036;-87
2021/01/05 04:15:58;;;;;;;15.15;10.77;;;3.10;91.10;;;;;;5073497;28;20032;-86
2021/01/05 04:18:24;;;;;;;14.98;10.95;;;3.20;91.20;;;;;;5073332;28;20388;-86
2021/01/05 04:21:02;;;;;;;14.00;10.27;;;3.20;91.20;;;;;;5073404;28;20414;-86
2021/01/05 04:23:30;;;;;;;14.90;11.23;;;3.20;91.20;;;;;;5059549;28;20040;-87
2021/01/05 04:26:01;;;;;;;16.83;11.75;;;3.20;91.20;;;;;;5073456;28;20060;-87
2021/01/05 04:28:29;;;;;;;16.35;11.52;;;3.20;91.20;;;;;;5056117;28;20067;-87
2021/01/05 04:30:55;;;;;;;14.07;9.88;;;3.20;91.20;;;;;;5072864;28;20024;-88
2021/01/05 04:33:28;;;;;;;15.02;10.43;;;3.20;91.20;;;;;;5071720;28;20025;-87
2021/01/05 04:36:02;;;;;;;18.73;11.63;;;3.20;91.20;;;;;;5073772;28;20464;-90
2021/01/05 04:38:38;;;;;;;;;;;;;;;;;;;;;
2021/01/05 04:41:16;;;;;;;17.08;12.13;;;3.20;91.20;;;;;;5073079;28;20490;-87
2021/01/05 04:44:00;;;;;;;16.80;11.30;;;3.20;91.30;;;;;;5072515;28;20085;-86
2021/01/05 04:46:42;;;;;;;16.48;11.95;;;3.20;91.30;;;;;;5071567;28;20174;-87
2021/01/05 04:49:16;;;;;;;16.80;11.77;;;3.20;91.30;;;;;;5104596;28;20028;-87
2021/01/05 04:52:01;;;;;;;15.90;10.98;;;3.20;91.30;;;;;;5071435;28;20025;-87
2021/01/05 04:54:35;;;;;;;15.10;10.40;;;3.20;91.40;;;;;;5073739;28;20044;-86
2021/01/05 04:57:06;;;;;;;16.27;10.85;;;3.20;91.40;;;;;;5071015;28;20009;-86
2021/01/05 04:59:43;;;;;;;17.05;11.88;;;3.20;91.40;;;;;;5060795;28;20372;-86
2021/01/05 05:02:24;;;;;;;14.50;10.15;;;3.20;91.40;;;;;;5071138;28;20016;-87
2021/01/05 05:05:16;;;;;;;16.85;12.00;;;3.20;91.40;;;;;;5072331;28;20044;-86
2021/01/05 05:08:00;;;;;;;14.38;10.00;;;3.20;91.40;;;;;;5071629;28;20051;-87
2021/01/05 05:11:02;;;;;;;;;;;;;;;;;;;;;
2021/01/05 05:13:57;;;;;;;;;;;;;;;;;;;;;
2021/01/05 05:17:04;;;;;;;13.85;9.68;;;3.20;91.40;;;;;;5055014;28;20021;-87
2021/01/05 05:20:03;;;;;;;15.95;10.93;;;3.20;91.50;;;;;;5033533;28;20503;-88
2021/01/05 05:22:59;;;;;;;13.05;9.75;;;3.20;91.50;;;;;;5072482;28;20036;-90
2021/01/05 05:25:48;;;;;;;14.70;9.90;;;3.20;91.50;;;;;;5081883;28;20064;-87
2021/01/05 05:28:34;;;;;;;12.07;9.20;;;3.20;91.50;;;;;;5074593;28;20469;-89
2021/01/05 05:31:04;;;;;;;14.52;10.10;;;3.20;91.50;;;;;;5077957;28;20029;-92
2021/01/05 05:33:58;;;;;;;13.93;10.45;;;3.20;91.50;;;;;;5081797;28;20037;-86
2021/01/05 05:36:29;;;;;;;12.77;9.18;;;3.20;91.40;;;;;;5057126;28;20457;-86
2021/01/05 05:39:03;;;;;;;14.20;9.63;;;3.20;91.40;;;;;;5078231;28;20115;-86
2021/01/05 05:42:03;;;;;;;14.27;10.65;;;3.30;91.50;;;;;;5078505;28;20036;-85
2021/01/05 05:44:53;;;;;;;14.20;10.75;;;3.30;91.40;;;;;;5043949;28;20133;-86
2021/01/05 05:47:41;;;;;;;14.80;10.68;;;3.20;91.40;;;;;;5067929;28;20021;-86
2021/01/05 05:50:36;;;;;;;;;;;;;;;;;;;;;
2021/01/05 05:53:16;;;;;;;11.20;8.48;;;3.20;91.40;;;;;;5059160;28;20029;-88
2021/01/05 05:56:10;;;;;;;14.07;10.38;;;3.30;91.40;;;;;;5082461;28;20078;-85
2021/01/05 05:58:42;;;;;;;15.68;10.40;;;3.30;91.40;;;;;;5073940;28;20025;-86
2021/01/05 06:01:29;;;;;;;;;;;;;;;;;;;;;
2021/01/05 06:04:07;;;;;;;14.57;9.60;;;3.20;91.30;;;;;;5071823;28;20030;-86
2021/01/05 06:06:41;;;;;;;13.80;9.38;;;3.30;91.40;;;;;;5081490;28;20056;-87
2021/01/05 06:09:08;;;;;;;13.82;9.63;;;3.30;91.40;;;;;;5053978;28;20028;-86
2021/01/05 06:11:37;;;;;;;13.90;10.13;;;3.30;91.60;;;;;;5070917;28;20032;-86
2021/01/05 06:14:11;;;;;;;12.45;8.90;;;3.30;91.40;;;;;;5070869;28;20353;-86
2021/01/05 06:16:37;;;;;;;14.75;9.57;;;3.30;91.40;;;;;;5088369;28;20028;-85
2021/01/05 06:19:09;;;;;;;14.00;10.30;;;3.40;91.40;;;;;;5071240;28;20032;-85
2021/01/05 06:22:06;;;;;;;13.02;9.40;;;3.40;91.30;;;;;;5070881;28;20029;-85
2021/01/05 06:24:41;;;;;;;;;;;;;;;;;;;;;
2021/01/05 06:27:14;;;;;;;15.00;9.93;;;3.30;91.20;;;;;;5070443;28;20035;-85
2021/01/05 06:29:49;;;;;;;16.30;10.10;;;3.30;91.20;;;;;;5070765;28;20064;-85
2021/01/05 06:32:27;;;;;;;;;;;;;;;;;;;;;
2021/01/05 06:34:56;;;;;;;15.38;10.45;;;3.30;91.20;;;;;;5052327;28;20041;-84
2021/01/05 06:37:24;;;;;;;16.65;11.27;;;3.30;91.20;;;;;;5069325;28;20033;-85
2021/01/05 06:40:08;;;;;;;14.73;9.98;;;3.30;91.20;;;;;;5049574;28;20033;-84
2021/01/05 06:42:46;;;;;;;16.30;10.90;;;3.30;91.20;;;;;;5064914;28;20037;-86
2021/01/05 06:45:25;;;;;;;14.65;10.52;;;3.30;91.20;;;;;;5050480;28;20093;-85
2021/01/05 06:48:02;;;;;;;14.68;11.02;;;3.30;91.20;;;;;;5051226;28;20017;-85
2021/01/05 06:50:33;;;;;;;14.18;10.73;;;3.20;91.20;;;;;;5065475;28;20041;-85
2021/01/05 06:53:08;;;;;;;17.15;10.63;;;3.30;91.20;;;;;;5070128;28;20115;-85
2021/01/05 06:55:52;;;;;;;18.05;11.80;;;3.30;91.30;;;;;;5069990;28;20027;-86
2021/01/05 06:58:20;;;;;;;15.18;10.57;;;3.30;91.30;;;;;;5070959;28;20028;-84
2021/01/05 07:00:48;;;;;;;14.85;10.48;;;3.20;91.30;;;;;;5070364;28;20025;-85
2021/01/05 07:03:39;;;;;;;16.58;11.00;;;3.20;91.30;;;;;;5073794;28;20028;-85
2021/01/05 07:06:10;;;;;;;16.85;11.40;;;3.30;91.40;;;;;;5058128;28;20021;-85
2021/01/05 07:08:42;;;;;;;15.88;10.57;;;3.30;91.40;;;;;;5073978;28;20040;-85
2021/01/05 07:11:13;;;;;;;15.18;10.32;;;3.30;91.40;;;;;;5058343;28;20029;-85
2021/01/05 07:13:41;;;;;;;18.60;11.95;;;3.30;91.40;;;;;;5074112;28;20028;-85
2021/01/05 07:16:16;;;;;;;17.42;10.93;;;3.30;91.40;;;;;;5074691;28;20020;-85
2021/01/05 07:18:41;;;;;;;17.60;12.10;;;3.30;91.30;;;;;;5074764;28;20020;-84
2021/01/05 07:21:14;;;;;;;17.73;11.35;;;3.30;91.30;;;;;;5057924;28;20043;-85
2021/01/05 07:23:43;;;;;;;17.60;11.48;;;3.30;91.30;;;;;;5074557;28;20135;-84
2021/01/05 07:26:13;;;;;;;16.60;10.85;;;3.20;91.30;;;;;;5074283;28;20020;-85
2021/01/05 07:28:44;;;;;;;16.33;11.15;;;3.30;91.30;;;;;;5074045;28;20048;-86
2021/01/05 07:31:21;;;;;;;17.95;10.65;;;3.30;91.40;;;;;;5073344;28;20472;-85
2021/01/05 07:34:14;;;;;;;15.80;11.10;;;3.30;91.30;;;;;;5055736;28;20036;-85
2021/01/05 07:36:52;;;;;;;16.27;10.32;;;3.30;91.30;;;;;;5073371;28;20024;-85
2021/01/05 07:39:32;;;;;;;15.63;10.43;;;3.30;91.30;;;;;;5073838;28;20025;-85
2021/01/05 07:42:40;;;;;;;;;;;;;;;;;;;;;
2021/01/05 07:45:26;;;;;;;16.38;10.57;;;3.40;91.40;;;;;;5071988;28;20484;-85
2021/01/05 07:48:05;;;;;;;18.27;11.68;;;3.30;91.30;;;;;;5075302;28;20031;-87
2021/01/05 07:50:40;;;;;;;19.95;12.80;;;3.40;91.30;;;;;;5074152;28;20025;-84
2021/01/05 07:53:06;;;;;;;18.95;10.25;;;3.30;91.30;;;;;;5073622;28;20086;-86
2021/01/05 07:55:48;;;;;;;16.02;10.98;;;3.40;91.30;;;;;;5073051;28;20024;-85
2021/01/05 07:58:34;;;;;;;21.90;12.45;;;3.40;91.30;;;;;;5073351;28;20020;-85
2021/01/05 08:01:22;;;;;;;17.65;10.82;;;3.40;91.30;;;;;;5058420;28;20380;-85
2021/01/05 08:03:50;;;;;;;17.42;11.07;;;3.40;91.40;;;;;;5057443;28;20086;-86
2021/01/05 08:06:21;;;;;;;18.95;12.00;;;3.40;91.40;;;;;;5073658;28;20063;-86
2021/01/05 08:08:54;;;;;;;20.27;12.50;;;3.40;91.40;;;;;;5057363;28;20086;-86
2021/01/05 08:11:38;;;;;;;16.58;11.90;;;3.40;91.40;;;;;;5073409;28;20519;-86
2021/01/05 08:14:13;;;;;;;17.75;11.57;;;3.40;91.40;;;;;;5058273;28;20123;-85
2021/01/05 08:16:45;;;;;;;19.50;12.02;;;3.40;91.40;;;;;;5074178;28;20488;-85
2021/01/05 08:19:23;;;;;;;18.10;12.32;;;3.40;91.40;;;;;;5073060;28;20029;-87
2021/01/05 08:21:49;;;;;;;17.75;12.35;;;3.40;91.40;;;;;;5040933;28;20032;-86
2021/01/05 08:24:20;;;;;;;19.92;12.93;;;3.40;91.40;;;;;;5074469;28;20040;-86
2021/01/05 08:26:55;;;;;;;17.23;12.75;;;3.40;91.40;;;;;;5073388;28;20028;-85
2021/01/05 08:29:23;;;;;;;16.73;11.32;;;3.50;91.40;;;;;;5072538;28;20039;-85
2021/01/05 08:31:59;;;;;;;20.27;12.57;;;3.40;91.40;;;;;;5073394;28;20048;-85
2021/01/05 08:34:36;;;;;;;18.60;13.05;;;3.50;91.50;;;;;;5073162;28;20025;-86
2021/01/05 08:37:11;;;;;;;17.80;12.70;;;3.50;91.40;;;;;;5073685;28;20024;-86
2021/01/05 08:39:47;;;;;;;19.85;12.75;;;3.50;91.40;;;;;;5072688;28;20016;-86
2021/01/05 08:42:12;;;;;;;16.60;11.85;;;3.50;91.40;;;;;;5061654;28;20032;-85
2021/01/05 08:45:10;;;;;;;18.33;13.30;;;3.50;91.30;;;;;;5075916;28;20036;-86
2021/01/05 08:47:36;;;;;;;16.17;11.55;;;3.50;91.30;;;;;;5052965;28;20024;-85
2021/01/05 08:50:06;;;;;;;18.25;12.65;;;3.50;91.30;;;;;;5054226;28;20029;-85
2021/01/05 08:52:45;;;;;;;18.73;13.18;;;3.50;91.20;;;;;;5070909;28;20054;-86
2021/01/05 08:55:22;;;;;;;;;;;;;;;;;;;;;
2021/01/05 08:57:58;;;;;;;18.85;13.30;;;3.50;91.10;;;;;;5058032;28;20037;-86
2021/01/05 09:00:24;;;;;;;18.52;12.45;;;3.50;91.10;;;;;;5059309;28;20024;-87
2021/01/05 09:02:56;;;;;;;15.90;12.20;;;3.50;91.00;;;;;;5072724;28;20035;-85
2021/01/05 09:05:45;;;;;;;;;;;;;;;;;;;;;
2021/01/05 09:08:17;;;;;;;18.40;12.75;;;3.50;91.00;;;;;;5052204;28;20477;-85
2021/01/05 09:10:53;;;;;;;17.63;12.43;;;3.50;91.00;;;;;;5051510;28;20787;-85
2021/01/05 09:13:28;;;;;;;;;;;;;;;;;;;;;
2021/01/05 09:16:00;;;;;;;17.70;12.80;;;3.50;90.90;;;;;;5072248;28;20027;-86
2021/01/05 09:18:32;;;;;;;19.27;13.00;;;3.50;90.90;;;;;;5072284;28;20055;-86
2021/01/05 09:20:58;;;;;;;17.05;12.13;;;3.60;90.90;;;;;;5055357;28;20021;-85
2021/01/05 09:23:27;;;;;;;17.20;12.35;;;3.60;90.80;;;;;;5071602;28;20039;-90
2021/01/05 09:25:58;;;;;;;17.10;12.48;;;3.50;90.70;;;;;;5053961;28;20032;-88
2021/01/05 09:28:36;;;;;;;17.60;12.95;;;3.50;90.70;;;;;;5071718;28;20024;-88
2021/01/05 09:31:02;;;;;;;17.52;12.30;;;3.50;90.70;;;;;;5056148;28;20384;-85
2021/01/05 09:33:35;;;;;;;18.65;13.50;;;3.50;90.70;;;;;;5071926;28;20040;-85
2021/01/05 09:36:14;;;;;;;19.45;13.38;;;3.50;90.70;;;;;;5055569;28;20484;-85
2021/01/05 09:38:53;;;;;;;;;;;;;;;;;;;;;
2021/01/05 09:44:30;;;;;;;16.23;12.27;;;3.60;90.80;;;;;;5073061;28;20033;-86
2021/01/05 09:47:02;;;;;;;15.43;11.10;;;3.60;91.10;;;;;;5072592;28;20024;-86
2021/01/05 09:49:31;;;;;;;15.63;11.48;;;3.60;90.80;;;;;;5071268;28;20395;-86
2021/01/05 09:52:04;;;;;;;14.13;11.73;;;3.60;90.80;;;;;;5070579;28;20016;-86
2021/01/05 09:54:48;;;;;;;13.70;10.25;;;3.70;90.80;;;;;;5070877;28;20028;-86
2021/01/05 09:57:31;;;;;;;12.88;10.75;;;3.70;90.80;;;;;;5055578;28;20048;-86
2021/01/05 10:00:13;;;;;;;17.33;11.85;;;3.70;90.80;;;;;;5070693;28;20039;-86
2021/01/05 10:02:41;;;;;;;15.50;11.40;;;3.70;90.80;;;;;;5070340;28;20052;-86
2021/01/05 10:08:31;;;;;;;;;;;;;;;;;;;;;
2021/01/05 10:11:02;;;;;;;12.95;9.50;;;3.60;90.50;;;;;;5072892;28;20028;-85
2021/01/05 10:13:38;;;;;;;15.45;10.85;;;3.60;90.50;;;;;;5087200;28;20043;-85
2021/01/05 10:16:14;;;;;;;13.30;10.18;;;3.60;90.50;;;;;;5055631;28;20056;-85
2021/01/05 10:18:52;;;;;;;13.07;9.40;;;3.70;90.50;;;;;;5070825;28;20090;-85
2021/01/05 10:21:23;;;;;;;13.20;10.38;;;3.70;90.50;;;;;;5087339;28;20476;-86
2021/01/05 10:23:50;;;;;;;13.60;9.65;;;3.70;90.40;;;;;;5065568;28;20033;-86
2021/01/05 10:26:18;;;;;;;10.85;8.77;;;3.60;90.20;;;;;;5057479;28;20020;-85
2021/01/05 10:28:56;;;;;;;10.82;8.32;;;3.60;90.20;;;;;;5063646;28;20465;-85
2021/01/05 10:31:52;;;;;;;11.02;8.27;;;3.70;90.20;;;;;;5070661;28;20016;-85
2021/01/05 10:34:24;;;;;;;10.55;8.45;;;3.70;90.20;;;;;;5056650;28;20042;-86
2021/01/05 10:37:21;;;;;;;10.13;7.80;;;3.70;90.10;;;;;;5084190;28;20033;-86
2021/01/05 10:39:57;;;;;;;11.68;7.93;;;3.70;90.10;;;;;;5070143;28;20035;-86
2021/01/05 10:42:43;;;;;;;11.73;9.40;;;3.70;90.10;;;;;;5055236;28;20079;-85
2021/01/05 10:45:13;;;;;;;10.68;8.15;;;3.70;89.80;;;;;;5075624;28;20056;-84
2021/01/05 10:48:04;;;;;;;;;;;;;;;;;;;;;
2021/01/05 10:50:35;;;;;;;11.25;8.70;;;3.70;90.00;;;;;;5076786;28;20047;-86
2021/01/05 10:53:03;;;;;;;10.13;7.93;;;3.70;90.00;;;;;;5073676;28;20109;-86
2021/01/05 10:55:34;;;;;;;10.95;8.88;;;3.70;90.00;;;;;;5074313;28;20033;-87
2021/01/05 10:58:22;;;;;;;;;;;;;;;;;;;;;
2021/01/05 11:01:08;;;;;;;;;;;;;;;;;;;;;
2021/01/05 11:03:52;;;;;;;11.27;8.38;;;3.70;90.20;;;;;;5055655;28;20045;-90
2021/01/05 11:06:53;;;;;;;14.57;9.52;;;3.70;89.90;;;;;;5039040;28;20106;-87
2021/01/05 11:09:20;;;;;;;12.32;9.50;;;3.70;89.80;;;;;;5054565;28;20045;-85
2021/01/05 11:12:15;;;;;;;13.05;9.48;;;3.70;90.00;;;;;;5055688;28;20102;-85
2021/01/05 11:15:04;;;;;;;11.00;8.63;;;3.70;89.90;;;;;;5064609;28;20037;-86
2021/01/05 11:18:06;;;;;;;11.85;9.25;;;3.70;89.90;;;;;;5090513;28;20101;-86
2021/01/05 11:20:32;;;;;;;;;;;3.70;90.00;;;;;;5073572;28;20070;-86
2021/01/05 11:23:33;;;;;;;;;;;;;;;;;;;;;
2021/01/05 11:26:14;;;;;;;;;;;;;;;;;;;;;
2021/01/05 11:29:05;;;;;;;11.38;9.00;;;3.70;90.00;;;;;;5064056;28;20029;-85
2021/01/05 11:31:34;;;;;;;10.57;8.13;;;3.70;90.00;;;;;;5075794;28;20067;-85
2021/01/05 11:34:05;;;;;;;12.05;9.38;;;3.70;89.80;;;;;;5091220;28;20016;-86
2021/01/05 11:36:41;;;;;;;10.52;8.50;;;3.70;89.80;;;;;;5058510;28;20029;-85
2021/01/05 11:39:16;;;;;;;12.63;9.48;;;3.70;89.80;;;;;;5041264;28;20068;-86
2021/01/05 11:41:47;;;;;;;11.73;9.00;;;3.70;90.00;;;;;;5075422;28;20387;-86
2021/01/05 11:44:21;;;;;;;11.73;8.63;;;3.70;90.00;;;;;;5056958;28;20050;-86
2021/01/05 11:46:52;;;;;;;11.80;9.07;;;3.70;90.00;;;;;;5057187;28;20044;-84
2021/01/05 11:49:19;;;;;;;12.38;9.30;;;3.70;90.00;;;;;;5057835;28;20384;-88
2021/01/05 11:51:54;;;;;;;12.02;8.90;;;3.80;90.00;;;;;;5073739;28;20027;-86
2021/01/05 11:54:20;;;;;;;12.95;9.38;;;3.70;90.10;;;;;;5075919;28;20047;-85
2021/01/05 11:57:18;;;;;;;13.05;10.40;;;3.80;90.10;;;;;;5073737;28;20460;-86
2021/01/05 11:59:46;;;;;;;12.82;10.05;;;3.80;90.10;;;;;;5073660;28;20025;-86
2021/01/05 12:02:21;;;;;;;12.95;9.88;;;3.80;90.10;;;;;;5073956;28;20020;-85
2021/01/05 12:04:55;;;;;;;13.45;9.85;;;3.80;90.10;;;;;;5057261;28;20424;-86
2021/01/05 12:07:36;;;;;;;11.73;9.43;;;3.80;90.10;;;;;;5073429;28;20045;-86
2021/01/05 12:10:07;;;;;;;12.90;10.05;;;3.80;90.10;;;;;;5057123;28;20055;-86
2021/01/05 12:12:45;;;;;;;;;;;;;;;;;;;;;
2021/01/05 12:15:32;;;;;;;13.38;9.63;;;3.80;90.20;;;;;;5074934;28;20472;-87
2021/01/05 12:17:58;;;;;;;13.38;10.00;;;3.80;90.20;;;;;;5073362;28;20036;-87
2021/01/05 12:20:32;;;;;;;15.98;10.65;;;3.80;90.50;;;;;;5073373;28;20016;-85
2021/01/05 12:23:11;;;;;;;14.30;10.75;;;3.80;90.20;;;;;;5073049;28;20047;-86
2021/01/05 12:25:49;;;;;;;;;;;;;;;;;;;;;
2021/01/05 12:28:30;;;;;;;16.48;11.80;;;3.80;90.20;;;;;;5073694;28;20038;-86
2021/01/05 12:31:11;;;;;;;;;;;;;;;;;;;;;
2021/01/05 12:33:37;;;;;;;16.52;12.15;;;3.90;90.20;;;;;;5058828;28;20389;-86
2021/01/05 12:36:27;;;;;;;16.58;11.77;;;3.90;90.20;;;;;;5071550;28;20167;-86
2021/01/05 12:38:56;;;;;;;17.15;12.32;;;3.90;90.30;;;;;;5073020;28;20460;-85
2021/01/05 12:41:22;;;;;;;17.02;11.57;;;3.90;90.30;;;;;;5072521;28;20417;-86
2021/01/05 12:43:50;;;;;;;15.93;11.60;;;3.90;90.20;;;;;;5072927;28;20131;-86
2021/01/05 12:46:29;;;;;;;18.02;11.90;;;3.80;90.20;;;;;;5072762;28;20472;-86
2021/01/05 12:49:03;;;;;;;15.57;11.20;;;3.90;90.20;;;;;;5071253;28;20032;-85
2021/01/05 12:51:36;;;;;;;14.35;11.48;;;3.90;90.20;;;;;;5070651;28;20119;-85
2021/01/05 12:54:14;;;;;;;18.08;13.30;;;3.90;90.20;;;;;;5070496;28;20032;-85
2021/01/05 12:56:49;;;;;;;15.73;11.80;;;3.90;90.10;;;;;;5070722;28;20028;-86
2021/01/05 12:59:30;;;;;;;;;;;;;;;;;;;;;
2021/01/05 13:02:25;;;;;;;15.15;10.90;;;3.90;90.20;;;;;;5070452;28;20025;-85
2021/01/05 13:05:04;;;;;;;17.52;12.05;;;3.90;90.20;;;;;;5070443;28;20021;-86
2021/01/05 13:07:35;;;;;;;15.82;11.65;;;3.90;90.20;;;;;;5053743;28;20036;-86
2021/01/05 13:10:04;;;;;;;16.02;11.80;;;3.90;90.20;;;;;;5069920;28;20021;-86
2021/01/05 13:12:50;;;;;;;18.70;13.60;;;3.90;90.20;;;;;;5068359;28;20070;-86
2021/01/05 13:15:29;;;;;;;18.00;12.10;;;3.90;90.10;;;;;;5071399;28;20055;-85
2021/01/05 13:18:04;;;;;;;19.00;12.05;;;3.90;90.10;;;;;;5065109;28;20031;-84
2021/01/05 13:20:38;;;;;;;15.93;11.05;;;3.90;90.20;;;;;;5071533;28;20116;-84
2021/01/05 13:23:40;;;;;;;;;;;;;;;;;;;;;
2021/01/05 13:26:16;;;;;;;16.80;11.75;;;3.90;90.20;;;;;;5055011;28;20029;-85
2021/01/05 13:29:01;;;;;;;14.43;9.80;;;4.00;90.20;;;;;;5056249;28;20111;-86
2021/01/05 13:32:28;;;;;;;14.95;11.00;;;4.00;90.20;;;;;;5052857;28;20036;-85
2021/01/05 13:35:12;;;;;;;21.17;13.48;;;4.00;90.20;;;;;;5043441;28;20033;-85
2021/01/05 13:41:02;;;;;;;18.33;12.02;;;4.00;90.10;;;;;;5057258;28;20065;-86
2021/01/05 13:43:30;;;;;;;19.08;13.02;;;4.00;90.10;;;;;;5071425;28;20094;-84
2021/01/05 13:46:11;;;;;;;17.80;13.15;;;3.90;90.00;;;;;;5067864;28;20037;-85
2021/01/05 13:49:15;;;;;;;;;;;;;;;;;;;;;
2021/01/05 13:52:09;;;;;;;19.38;12.88;;;4.00;90.10;;;;;;5060419;28;20476;-84
2021/01/05 13:55:07;;;;;;;;;;;;;;;;;;;;;
2021/01/05 13:58:08;;;;;;;17.92;11.90;;;3.90;90.40;;;;;;5078147;28;20031;-86
2021/01/05 14:01:02;;;;;;;20.55;12.73;;;3.90;90.20;;;;;;5054866;28;20235;-85
2021/01/05 14:07:28;;;;;;;19.92;13.52;;;3.90;90.20;;;;;;5068614;28;20051;-87
2021/01/05 14:10:19;;;;;;;18.85;12.65;;;3.90;90.20;;;;;;5056946;28;20639;-89
2021/01/05 14:12:53;;;;;;;18.40;12.18;;;3.90;90.30;;;;;;5065155;28;20031;-88
2021/01/05 14:15:29;;;;;;;18.25;11.93;;;3.90;90.30;;;;;;5069102;28;20528;-87
2021/01/05 14:17:58;;;;;;;20.67;13.57;;;3.90;90.40;;;;;;5050648;28;20416;-90
2021/01/05 14:20:40;;;;;;;18.60;12.88;;;3.90;90.40;;;;;;5066925;28;20175;-86
2021/01/05 14:23:16;;;;;;;19.27;13.43;;;3.90;90.50;;;;;;5064370;28;20017;-86
2021/01/05 14:26:01;;;;;;;20.55;12.80;;;3.90;90.50;;;;;;5065244;28;20365;-85
2021/01/05 14:28:50;;;;;;;21.15;13.07;;;3.90;90.50;;;;;;5056128;28;20480;-85
2021/01/05 14:31:23;;;;;;;21.08;13.65;;;3.90;90.50;;;;;;5068556;28;20040;-85